TNX weather

Stung Treng Airport
Stung Treng, Stueng Traeng, Cambodia

Public forecast

Using degrees Celsius for public forecast. Weather courtesy of forecast.io.

METAR (pilot weather report)

Report is more than 6 hours old.

Closest report is Pakse International Airport, 97.0 nm (179.7 km) N. Retrieved 2019/02/16 13:00 UTC (7 hours ago):

VLPS 161300Z 14002KT 8000 SCT024 32/16 Q1012 NOSIG

TAF (pilot weather forecast)

Closest forecast is Pakse International Airport, 97.0 nm (179.7 km) N. Retrieved 2019/02/16 18:00 UTC (2 hours ago):

TAF VLPS 161700Z 1618/1718 18006KT 5000 BR FEW027 SCT100